Aeroporto :
LOGIN :

Iscrizione | Disclaimer

   EN    FR    IT 

 










Sommario :    VFR   VFR Marginale   IFR   IFR Intensivo   IFR Molto Intensivo
Visibilità : 
Base nubi : 
>= 8 km
>= 3000ft
5 / 8 km
1000 / 3000 ft
1500m / 5 km
500 / 1000 ft
800 / 1500m
200 / 500 ft
< 800m
< 200 ft
Simboli :   Temporali  Nebbia  Neve Forte  Precipitazioni Forti  Vento > 20 kt
SIGMETs :   Varie  Temporali  Ghiacco  Turbolenza  Onda orograficha  Ceneri Vulcaniche






- Altitudine del aeroporto : 308 ft
- Codice IATA : POZ


EPPO - Poznan-Lawica

ULTIMO METAR :
  • 042130Z 12007KT CAVOK 18/07 Q0994

METARs OBSOLETI :
  • 042100Z 12007KT CAVOK 18/07 Q0994
  • 042030Z 12010KT CAVOK 19/06 Q0994
  • 042000Z 12012KT CAVOK 19/05 Q0995
  • 041930Z 12013KT CAVOK 20/05 Q0995
  • 041900Z 12013KT CAVOK 20/05 Q0995

TAF TAF EPPO
Valido dal 04 a 18 ore il 05 a 18 ore UTC


041730Z 0418/0518 14010KT CAVOK
TEMPO 0421/0518 SHRA BKN020CB
PROB30
TEMPO 0503/0508 BKN005
BECMG 0506/0508 28009KT
PROB30
TEMPO 0509/0516 VRB15G30KT 4000 TSRA BKN014CB
BECMG 0515/0518 18011KT



MetMap, La meteo Aeronautica in un colpo d'occhio ! - Copyright ORBIFLY Dicembre 2007 - Disclaimer

ORBIFLY MET'MAP TEAM :

Programmazione e sviluppo : Alexandra Zaïnal
Concezione : Baudouin d'Aumeries
Aiuto per la programmazione : Marc-Olivier Méhu
Supporto tecnico e logistico : Manuel Goepfert
Aiuto per la traduzione : Arnaldo La Scala

Contatto : metmap@orbifly.com




FONTI E CREDITI :

   NOAA